Time;durP1;ratioP1;P1;durP2;ratioP2;P2;SDS_P1;SDS_P2;PMS_P1;PMS_P2;Temp;Humidity;BMP_temperature;BMP_pressure;BME280_temperature;BME280_humidity;BME280_pressure;Samples;Min_cycle;Max_cycle;Signal;HPM_P1;HPM_P2
2021/04/25 00:00:53;;;;;;;10.88;8.25;;;;;;;6.10;43.61;100853.29;114386;1196;103159;-81
2021/04/25 00:03:21;;;;;;;8.08;7.28;;;;;;;6.10;43.41;100845.36;114396;1196;103153;-81
2021/04/25 00:05:47;;;;;;;9.57;8.50;;;;;;;6.10;43.74;100848.00;114339;1196;104056;-82
2021/04/25 00:08:15;;;;;;;8.90;7.55;;;;;;;6.10;43.64;100847.13;114295;1196;103249;-81
2021/04/25 00:10:46;;;;;;;11.10;7.10;;;;;;;6.08;43.89;100843.59;114670;1196;103095;-82
2021/04/25 00:13:14;;;;;;;14.17;8.20;;;;;;;6.06;43.86;100840.95;114616;1196;103240;-81
2021/04/25 00:15:44;;;;;;;12.00;8.77;;;;;;;6.07;44.84;100836.57;114313;1196;103195;-81
2021/04/25 00:18:11;;;;;;;11.90;9.33;;;;;;;6.06;44.35;100830.38;114224;1196;103163;-82
2021/04/25 00:20:42;;;;;;;12.70;9.18;;;;;;;6.05;44.41;100833.03;114185;1196;103203;-81
2021/04/25 00:23:10;;;;;;;10.33;7.33;;;;;;;6.06;44.69;100832.16;114335;1196;103313;-82
2021/04/25 00:25:37;;;;;;;10.50;8.30;;;;;;;6.01;44.78;100833.05;114264;1196;103414;-82
2021/04/25 00:28:04;;;;;;;18.08;9.20;;;;;;;5.98;44.93;100830.38;114221;1196;103044;-82
2021/04/25 00:30:30;;;;;;;12.67;8.37;;;;;;;5.96;44.86;100824.20;114249;1196;103125;-83
2021/04/25 00:32:57;;;;;;;14.78;9.73;;;;;;;5.94;45.13;100818.02;114290;1196;103201;-82
2021/04/25 00:35:24;;;;;;;13.08;8.10;;;;;;;5.93;45.44;100818.02;114310;1196;103147;-81
2021/04/25 00:37:51;;;;;;;13.78;9.05;;;;;;;5.93;45.39;100825.95;114246;1196;103101;-82
2021/04/25 00:40:20;;;;;;;18.40;10.37;;;;;;;5.92;46.12;100824.19;114234;1202;103156;-82
2021/04/25 00:42:52;;;;;;;15.40;10.40;;;;;;;5.91;45.68;100827.73;114460;1196;103035;-82
2021/04/25 00:45:24;;;;;;;12.15;10.25;;;;;;;5.89;45.90;100816.27;114684;1197;103201;-82
2021/04/25 00:47:52;;;;;;;13.15;10.38;;;;;;;5.86;46.03;100822.43;114237;1196;103120;-83
2021/04/25 00:50:26;;;;;;;11.47;9.87;;;;;;;5.82;46.74;100821.54;114343;1196;103491;-82
2021/04/25 00:53:01;;;;;;;10.83;9.08;;;;;;;5.80;47.39;100823.31;114519;1196;103092;-82
2021/04/25 00:55:31;;;;;;;14.00;10.10;;;;;;;5.77;47.17;100818.05;114257;1196;103226;-81
2021/04/25 00:58:04;;;;;;;17.80;10.23;;;;;;;5.79;47.36;100820.68;114155;1196;103250;-82
2021/04/25 01:00:34;;;;;;;13.33;10.07;;;;;;;5.77;47.26;100815.40;114003;1196;103179;-82
2021/04/25 01:03:04;;;;;;;13.70;11.07;;;;;;;5.70;47.58;100813.62;114614;1196;103233;-82
2021/04/25 01:05:33;;;;;;;16.40;10.43;;;;;;;5.71;48.38;100811.88;114933;1196;103578;-82
2021/04/25 01:08:02;;;;;;;12.93;8.70;;;;;;;5.68;48.60;100812.75;114218;1196;103562;-82
2021/04/25 01:10:29;;;;;;;18.50;11.47;;;;;;;5.67;49.18;100813.63;114436;1196;103098;-82
2021/04/25 01:12:59;;;;;;;17.00;10.98;;;;;;;5.63;49.46;100811.87;114450;1196;103526;-82
2021/04/25 01:15:27;;;;;;;12.50;9.50;;;;;;;5.59;49.18;100810.97;114501;1196;103192;-82
2021/04/25 01:17:55;;;;;;;15.78;10.38;;;;;;;5.60;49.77;100804.81;114285;1196;103054;-83
2021/04/25 01:20:32;;;;;;;15.65;10.18;;;;;;;5.59;49.81;100805.69;114549;1197;103141;-80
2021/04/25 01:23:02;;;;;;;14.00;10.47;;;;;;;5.59;49.79;100805.69;114369;1196;103201;-82
2021/04/25 01:25:35;;;;;;;13.07;10.00;;;;;;;5.60;49.57;100803.91;114998;1196;103131;-81
2021/04/25 01:28:04;;;;;;;11.97;10.53;;;;;;;5.59;49.77;100796.89;114328;1196;103893;-82
2021/04/25 01:30:33;;;;;;;14.70;9.60;;;;;;;5.55;50.24;100801.28;114258;1196;103162;-82
2021/04/25 01:33:02;;;;;;;15.40;10.57;;;;;;;5.50;50.02;100793.38;114367;1196;103076;-81
2021/04/25 01:35:31;;;;;;;14.95;10.55;;;;;;;5.47;50.12;100792.48;116725;1196;101312;-83
2021/04/25 01:38:01;;;;;;;14.15;10.60;;;;;;;5.44;49.67;100779.24;116728;1196;100941;-82
2021/04/25 01:40:30;;;;;;;15.17;11.30;;;;;;;5.39;50.58;100781.89;115210;1196;103156;-81
2021/04/25 01:43:02;;;;;;;11.47;9.37;;;;;;;5.41;50.22;100774.88;115044;1196;103124;-81
2021/04/25 01:45:30;;;;;;;12.37;9.70;;;;;;;5.45;50.32;100781.02;114391;1196;103261;-81
2021/04/25 01:48:01;;;;;;;15.73;10.30;;;;;;;5.44;50.60;100782.79;114266;1196;103153;-82
2021/04/25 01:50:31;;;;;;;13.83;11.33;;;;;;;5.51;50.95;100781.03;114689;1196;103022;-81
2021/04/25 01:53:00;;;;;;;14.85;9.50;;;;;;;5.48;51.64;100781.04;114786;1196;103091;-82
2021/04/25 01:55:35;;;;;;;13.40;9.70;;;;;;;5.42;51.38;100775.73;115127;1196;103248;-81
2021/04/25 01:58:10;;;;;;;15.60;11.87;;;;;;;5.38;51.77;100773.98;114313;1196;103140;-82
2021/04/25 02:00:56;;;;;;;14.10;10.50;;;;;;;5.34;52.23;100781.91;114150;1196;103188;-82
2021/04/25 02:03:31;;;;;;;14.80;9.75;;;;;;;5.39;52.05;100775.75;115778;1196;103141;-82
2021/04/25 02:06:01;;;;;;;14.33;11.10;;;;;;;5.40;52.27;100773.10;115158;1196;103130;-82
2021/04/25 02:08:44;;;;;;;16.17;12.80;;;;;;;5.44;51.80;100771.32;113990;1199;103309;-82
2021/04/25 02:11:11;;;;;;;15.50;11.80;;;;;;;5.44;51.84;100774.86;113971;1199;103293;-82
2021/04/25 02:13:39;;;;;;;13.78;11.80;;;;;;;5.37;51.67;100770.44;116448;1200;101400;-84
2021/04/25 02:16:06;;;;;;;13.20;10.40;;;;;;;5.37;51.85;100767.80;115234;1200;103127;-82
2021/04/25 02:18:37;;;;;;;16.23;12.43;;;;;;;5.40;52.12;100767.81;113865;1200;103205;-80
2021/04/25 02:21:11;;;;;;;19.60;12.60;;;;;;;5.41;51.84;100763.41;115705;1199;103163;-81
2021/04/25 02:23:41;;;;;;;21.75;11.50;;;;;;;5.41;52.57;100766.05;114711;1200;103126;-80
2021/04/25 02:26:21;;;;;;;14.17;10.30;;;;;;;5.36;52.77;100766.05;114302;1200;103316;-81
2021/04/25 02:28:59;;;;;;;14.27;10.37;;;;;;;5.40;52.55;100770.45;114124;1200;103265;-82
2021/04/25 02:31:29;;;;;;;21.25;12.15;;;;;;;5.42;52.32;100783.66;114820;1199;103130;-82
2021/04/25 02:33:59;;;;;;;15.63;11.20;;;;;;;5.42;51.84;100779.25;115795;1199;101831;-82
2021/04/25 02:36:31;;;;;;;18.20;11.47;;;;;;;5.45;51.82;100773.99;116498;1199;101938;-82
2021/04/25 02:39:13;;;;;;;15.65;13.35;;;;;;;5.40;52.08;100775.74;116346;1202;101152;-82
2021/04/25 02:41:40;;;;;;;16.77;12.67;;;;;;;5.35;51.25;100773.08;114277;1199;103101;-81
2021/04/25 02:44:07;;;;;;;18.43;11.97;;;;;;;5.35;51.61;100774.85;114006;1199;103405;-82
2021/04/25 02:46:40;;;;;;;17.35;13.45;;;;;;;5.34;51.32;100778.36;114126;1197;103633;-82
2021/04/25 02:49:25;;;;;;;19.23;12.70;;;;;;;5.35;51.05;100783.64;115183;1196;103024;-83
2021/04/25 02:51:57;;;;;;;19.15;13.03;;;;;;;5.34;51.10;100778.36;114213;1197;103219;-82
2021/04/25 02:54:33;;;;;;;17.33;11.60;;;;;;;5.35;51.36;100775.72;114253;1196;103169;-82
2021/04/25 02:57:06;;;;;;;14.73;11.33;;;;;;;5.39;51.48;100773.11;114438;1196;103285;-83
2021/04/25 02:59:33;;;;;;;17.47;12.17;;;;;;;5.25;51.46;100771.33;114616;1196;103294;-82
2021/04/25 03:02:05;;;;;;;17.90;11.40;;;;;;;5.23;51.65;100766.92;116497;1196;102995;-81
2021/04/25 03:04:34;;;;;;;17.75;11.50;;;;;;;5.21;52.01;100769.53;114316;1196;103115;-83
2021/04/25 03:07:15;;;;;;;16.70;11.80;;;;;;;5.12;51.90;100772.19;114010;1199;103269;-83
2021/04/25 03:09:45;;;;;;;15.03;11.45;;;;;;;5.14;52.71;100768.64;116369;1199;101355;-81
2021/04/25 03:12:14;;;;;;;15.93;11.53;;;;;;;5.20;52.39;100773.08;113978;1199;103162;-81
2021/04/25 03:14:55;;;;;;;15.40;12.90;;;;;;;5.14;52.05;100770.41;113837;1202;103207;-82
2021/04/25 03:17:24;;;;;;;15.10;11.10;;;;;;;5.11;52.31;100759.86;113857;1202;103185;-81
2021/04/25 03:19:51;;;;;;;19.60;12.10;;;;;;;5.18;52.53;100766.90;113780;1202;103210;-83
2021/04/25 03:22:18;;;;;;;16.60;11.30;;;;;;;5.11;52.56;100765.14;113756;1203;103193;-81
2021/04/25 03:24:46;;;;;;;18.90;11.03;;;;;;;5.16;52.53;100766.03;113781;1202;103272;-82
2021/04/25 03:27:17;;;;;;;14.97;12.60;;;;;;;5.12;52.54;100764.27;113807;1203;103396;-81
2021/04/25 03:29:53;;;;;;;20.90;12.20;;;;;;;5.07;53.52;100766.88;114042;1203;103261;-81
2021/04/25 03:32:21;;;;;;;15.15;11.45;;;;;;;5.05;53.95;100771.27;114137;1203;103223;-81
2021/04/25 03:34:49;;;;;;;16.50;11.15;;;;;;;4.99;54.24;100764.22;113816;1202;103246;-82
2021/04/25 03:37:22;;;;;;;17.33;12.15;;;;;;;5.01;53.80;100759.84;114948;1202;103549;-82
2021/04/25 03:39:53;;;;;;;18.60;12.85;;;;;;;5.03;53.79;100763.34;113749;1202;103253;-82
2021/04/25 03:42:25;;;;;;;17.80;12.75;;;;;;;4.98;54.74;100764.22;113725;1202;103242;-82
2021/04/25 03:44:58;;;;;;;19.57;11.17;;;;;;;4.95;54.12;100761.58;114634;1199;103252;-82
2021/04/25 03:47:28;;;;;;;16.33;12.00;;;;;;;4.94;54.58;100767.73;113891;1199;103182;-83
2021/04/25 03:50:12;;;;;;;16.57;11.53;;;;;;;4.97;54.10;100770.37;115348;1199;103213;-82
2021/04/25 03:52:58;;;;;;;19.08;12.38;;;;;;;4.95;54.19;100770.37;114285;1200;103245;-81
2021/04/25 03:55:31;;;;;;;16.00;12.50;;;;;;;4.94;54.67;100765.96;113923;1199;103364;-81
2021/04/25 03:58:04;;;;;;;16.05;13.35;;;;;;;4.93;54.26;100768.60;115187;1200;103099;-81
2021/04/25 04:00:36;;;;;;;15.67;12.70;;;;;;;4.93;54.72;100768.60;114377;1199;103313;-81
2021/04/25 04:03:09;;;;;;;18.33;12.67;;;;;;;4.95;55.04;100766.86;114838;1199;103093;-83
2021/04/25 04:05:37;;;;;;;15.15;12.70;;;;;;;4.99;54.74;100769.50;113961;1200;103278;-81
2021/04/25 04:08:06;;;;;;;15.15;11.90;;;;;;;5.01;54.99;100773.03;116524;1200;101411;-81
2021/04/25 04:10:33;;;;;;;21.37;14.50;;;;;;;5.07;54.47;100768.66;116496;1199;101879;-81
2021/04/25 04:13:00;;;;;;;17.85;13.35;;;;;;;5.14;54.98;100767.77;114768;1199;103354;-81
2021/04/25 04:15:41;;;;;;;18.77;13.90;;;;;;;5.16;55.67;100774.82;114756;1199;103201;-81
2021/04/25 04:18:24;;;;;;;32.27;18.63;;;;;;;5.19;54.95;100776.59;114208;1199;103126;-81
2021/04/25 04:20:54;;;;;;;29.40;21.63;;;;;;;5.19;54.98;100774.81;115902;1199;101365;-81
2021/04/25 04:23:36;;;;;;;33.00;20.10;;;;;;;5.24;54.78;100772.20;116494;1200;103022;-81
2021/04/25 04:26:06;;;;;;;34.63;23.83;;;;;;;5.30;54.33;100768.68;116449;1199;101570;-81
2021/04/25 04:28:48;;;;;;;28.30;21.20;;;;;;;5.38;54.18;100779.26;116267;1202;102183;-81
2021/04/25 04:31:14;;;;;;;22.03;17.55;;;;;;;5.38;53.24;100777.48;116417;1199;101775;-82
2021/04/25 04:33:41;;;;;;;20.93;15.23;;;;;;;5.43;52.05;100783.66;116445;1199;101272;-81
2021/04/25 04:36:08;;;;;;;20.43;15.30;;;;;;;5.46;51.81;100786.30;114044;1200;103329;-81
2021/04/25 04:38:36;;;;;;;20.93;14.63;;;;;;;5.43;52.28;100778.38;114012;1199;103275;-82
2021/04/25 04:41:10;;;;;;;17.60;12.33;;;;;;;5.48;50.91;100779.27;114649;1199;103284;-81
2021/04/25 04:43:45;;;;;;;16.00;13.03;;;;;;;5.52;50.80;100781.03;114086;1200;103284;-82
2021/04/25 04:46:14;;;;;;;20.83;14.40;;;;;;;5.53;50.51;100781.89;115588;1199;103882;-82
2021/04/25 04:48:44;;;;;;;15.65;12.68;;;;;;;5.56;50.50;100778.38;114257;1199;103150;-82
2021/04/25 04:51:11;;;;;;;18.87;13.33;;;;;;;5.60;51.22;100781.03;114219;1199;103789;-82
2021/04/25 04:53:37;;;;;;;16.93;12.60;;;;;;;5.66;50.42;100780.15;114348;1199;103310;-82
2021/04/25 04:56:05;;;;;;;18.13;14.80;;;;;;;5.63;50.35;100794.23;114240;1199;103185;-82
2021/04/25 04:58:32;;;;;;;20.97;16.40;;;;;;;5.61;50.26;100790.73;114428;1200;103290;-83
2021/04/25 05:01:05;;;;;;;18.93;13.37;;;;;;;5.63;49.60;100788.09;116500;1199;101208;-80
2021/04/25 05:03:36;;;;;;;17.23;11.57;;;;;;;5.66;49.09;100788.08;116451;1199;101013;-81
2021/04/25 05:06:12;;;;;;;12.33;9.50;;;;;;;5.66;48.91;100793.36;115312;1196;103073;-82
2021/04/25 05:08:42;;;;;;;10.97;9.60;;;;;;;5.65;49.39;100789.85;116573;1196;101713;-82
2021/04/25 05:11:13;;;;;;;15.70;9.30;;;;;;;5.72;49.11;100793.38;116137;1196;103239;-81
2021/04/25 05:13:41;;;;;;;12.53;10.73;;;;;;;5.78;49.08;100793.35;114195;1196;103153;-81
2021/04/25 05:16:14;;;;;;;14.48;10.40;;;;;;;5.77;49.01;100791.61;115662;1196;103059;-81
2021/04/25 05:18:56;;;;;;;12.90;8.95;;;;;;;5.82;49.82;100789.82;114310;1196;103198;-82
2021/04/25 05:21:25;;;;;;;18.50;11.18;;;;;;;5.79;49.48;100789.83;116699;1195;101258;-80
2021/04/25 05:23:52;;;;;;;11.07;9.87;;;;;;;5.85;49.26;100792.48;115139;1196;101957;-81
2021/04/25 05:26:25;;;;;;;12.33;9.67;;;;;;;5.95;48.68;100795.13;114782;1196;103060;-82
2021/04/25 05:29:12;;;;;;;15.47;9.77;;;;;;;6.03;47.54;100781.03;114258;1196;103642;-81
2021/04/25 05:31:43;;;;;;;11.33;9.77;;;;;;;6.11;47.14;100778.38;114142;1197;103504;-81
2021/04/25 05:34:16;;;;;;;11.35;9.70;;;;;;;6.16;46.89;100778.38;114275;1196;103096;-80
2021/04/25 05:36:43;;;;;;;14.50;8.50;;;;;;;6.18;46.13;100782.79;116651;1196;101185;-81
2021/04/25 05:39:24;;;;;;;12.23;8.07;;;;;;;6.21;46.48;100781.87;116719;1196;101661;-81
2021/04/25 05:41:53;;;;;;;7.58;5.90;;;;;;;6.22;45.20;100775.70;116717;1196;101707;-81
2021/04/25 05:44:19;;;;;;;9.25;7.03;;;;;;;6.31;45.28;100780.11;116761;1196;102262;-83
2021/04/25 05:46:46;;;;;;;8.75;7.53;;;;;;;6.46;45.23;100781.81;116705;1196;101273;-81
2021/04/25 05:49:18;;;;;;;8.70;6.78;;;;;;;6.51;44.24;100775.61;115863;1196;103250;-82
2021/04/25 05:51:48;;;;;;;8.93;6.30;;;;;;;6.61;43.65;100772.94;114860;1196;103215;-81
2021/04/25 05:54:18;;;;;;;7.28;5.73;;;;;;;6.70;43.24;100775.55;115135;1197;103089;-80
2021/04/25 05:56:46;;;;;;;7.40;5.53;;;;;;;6.76;43.71;100771.98;114295;1196;103240;-82
2021/04/25 05:59:16;;;;;;;8.25;5.78;;;;;;;6.74;43.37;100779.94;114657;1196;103046;-81
2021/04/25 06:01:43;;;;;;;7.83;5.43;;;;;;;6.73;42.38;100780.84;114569;1196;103128;-82
2021/04/25 06:04:11;;;;;;;6.73;4.88;;;;;;;6.71;41.66;100777.31;114565;1196;103115;-82
2021/04/25 06:06:38;;;;;;;5.30;4.80;;;;;;;6.70;39.50;100778.19;114599;1196;103092;-83
2021/04/25 06:09:06;;;;;;;4.80;3.75;;;;;;;6.66;39.52;100774.70;114530;1196;103262;-82
2021/04/25 06:11:38;;;;;;;5.43;4.40;;;;;;;6.67;38.98;100773.79;116742;1196;101200;-79
2021/04/25 06:14:18;;;;;;;2.98;2.78;;;;;;;6.69;37.70;100776.42;114096;1196;103198;-80
2021/04/25 06:16:45;;;;;;;3.93;3.63;;;;;;;6.74;37.00;100769.35;114029;1197;103179;-80
2021/04/25 06:19:12;;;;;;;4.73;3.07;;;;;;;6.78;36.33;100771.09;113421;1196;103217;-80
2021/04/25 06:21:38;;;;;;;2.63;2.43;;;;;;;6.78;36.47;100771.09;113628;1197;103095;-80
2021/04/25 06:24:06;;;;;;;3.13;2.87;;;;;;;6.82;35.26;100772.87;113539;1196;103220;-80
2021/04/25 06:26:34;;;;;;;3.00;2.70;;;;;;;6.88;35.26;100778.98;115472;1197;103127;-81
2021/04/25 06:29:01;;;;;;;4.17;3.13;;;;;;;6.89;35.09;100760.48;114153;1197;103233;-82
2021/04/25 06:31:28;;;;;;;6.60;3.30;;;;;;;6.98;35.09;100765.72;113618;1197;103229;-81
2021/04/25 06:33:54;;;;;;;2.63;2.43;;;;;;;7.01;34.84;100768.34;113709;1196;103196;-79
2021/04/25 06:36:21;;;;;;;3.37;3.07;;;;;;;7.10;34.98;100770.04;113995;1196;103211;-81
2021/04/25 06:38:48;;;;;;;6.83;3.63;;;;;;;7.14;35.14;100763.83;113914;1196;103182;-80
2021/04/25 06:41:15;;;;;;;3.17;2.87;;;;;;;7.22;35.75;100762.92;114176;1196;103182;-80
2021/04/25 06:43:41;;;;;;;3.37;3.07;;;;;;;7.24;35.28;100764.67;114107;1196;103051;-80
2021/04/25 06:46:08;;;;;;;3.83;2.90;;;;;;;7.23;34.93;100762.91;114256;1196;103102;-81
2021/04/25 06:48:37;;;;;;;2.83;2.60;;;;;;;7.28;35.04;100763.76;114278;1196;103121;-80
2021/04/25 06:51:20;;;;;;;4.83;3.30;;;;;;;7.34;34.63;100763.73;114631;1196;103571;-80
2021/04/25 06:53:53;;;;;;;3.83;3.13;;;;;;;7.39;34.56;100774.28;114128;1197;103251;-80
2021/04/25 06:56:22;;;;;;;2.68;2.30;;;;;;;7.43;33.91;100769.84;114383;1196;103227;-81
2021/04/25 06:58:55;;;;;;;2.80;2.60;;;;;;;7.43;32.62;100777.80;116031;1196;103022;-81
2021/04/25 07:01:26;;;;;;;4.40;2.40;;;;;;;7.40;32.25;100767.19;114433;1196;103104;-80
2021/04/25 07:04:08;;;;;;;8.35;3.18;;;;;;;7.43;33.47;100767.19;114461;1196;103469;-81
2021/04/25 07:06:41;;;;;;;2.73;2.47;;;;;;;7.52;33.40;100770.64;114807;1196;103124;-82
2021/04/25 07:09:23;;;;;;;2.97;2.17;;;;;;;7.61;33.94;100769.70;113769;1196;103287;-80
2021/04/25 07:12:06;;;;;;;3.57;3.00;;;;;;;7.73;33.57;100779.33;114502;1199;103226;-80
2021/04/25 07:14:33;;;;;;;2.70;2.40;;;;;;;7.77;32.86;100770.45;113742;1200;103284;-81
2021/04/25 07:17:01;;;;;;;6.55;3.00;;;;;;;7.82;33.55;100773.05;113929;1196;103281;-81
2021/04/25 07:19:30;;;;;;;3.30;2.58;;;;;;;7.85;33.38;100767.70;114798;1196;103236;-83
2021/04/25 07:21:58;;;;;;;3.77;2.60;;;;;;;7.87;32.73;100769.45;114173;1196;103182;-81
2021/04/25 07:24:25;;;;;;;2.35;2.15;;;;;;;7.91;32.57;100769.45;114301;1196;103163;-81
2021/04/25 07:26:54;;;;;;;2.47;2.00;;;;;;;7.98;32.99;100769.38;114207;1197;103197;-82
2021/04/25 07:29:30;;;;;;;3.33;2.98;;;;;;;8.02;31.78;100765.80;114192;1196;103530;-81
2021/04/25 07:32:05;;;;;;;2.43;2.27;;;;;;;8.10;30.98;100760.39;114121;1196;103280;-79
2021/04/25 07:34:51;;;;;;;2.00;1.90;;;;;;;8.09;30.89;100763.97;116705;1196;101687;-80
2021/04/25 07:37:18;;;;;;;2.10;1.90;;;;;;;8.15;30.88;100766.53;115709;1196;103050;-81
2021/04/25 07:40:02;;;;;;;2.70;2.00;;;;;;;8.21;31.26;100770.92;113864;1200;103898;-82
2021/04/25 07:42:48;;;;;;;2.37;2.20;;;;;;;8.31;30.74;100767.25;114588;1202;103294;-82
2021/04/25 07:45:23;;;;;;;2.80;2.10;;;;;;;8.37;30.50;100764.53;116016;1203;102001;-80
2021/04/25 07:47:58;;;;;;;2.30;1.90;;;;;;;8.39;29.35;100760.99;113523;1203;103376;-81
2021/04/25 07:50:25;;;;;;;2.03;1.83;;;;;;;8.48;29.30;100758.27;113633;1203;103262;-81
2021/04/25 07:52:52;;;;;;;2.08;1.95;;;;;;;8.53;30.08;100764.41;113610;1202;103188;-80
2021/04/25 07:55:19;;;;;;;3.00;2.00;;;;;;;8.59;29.96;100763.44;113722;1200;103319;-81
2021/04/25 07:57:47;;;;;;;2.90;2.27;;;;;;;8.63;30.46;100762.50;113666;1200;103236;-81
2021/04/25 08:00:16;;;;;;;2.37;2.17;;;;;;;8.73;30.65;100757.94;115046;1200;103284;-81
2021/04/25 08:02:47;;;;;;;2.28;2.08;;;;;;;8.77;29.59;100755.24;116463;1199;101164;-82
2021/04/25 08:05:16;;;;;;;2.35;2.15;;;;;;;8.73;28.96;100756.19;115675;1199;103441;-80
2021/04/25 08:07:45;;;;;;;2.48;1.95;;;;;;;8.77;29.05;100752.59;116550;1199;101042;-82
2021/04/25 08:10:12;;;;;;;2.10;1.80;;;;;;;8.86;30.44;100757.78;115636;1200;103437;-81
2021/04/25 08:12:39;;;;;;;2.37;2.17;;;;;;;8.97;29.50;100754.07;113928;1199;103656;-80
2021/04/25 08:15:08;;;;;;;2.60;2.40;;;;;;;9.02;29.32;100752.23;113900;1200;103447;-84
2021/04/25 08:17:37;;;;;;;3.50;3.20;;;;;;;9.18;30.06;100755.55;115415;1196;102189;-84
2021/04/25 08:20:05;;;;;;;3.47;2.13;;;;;;;9.23;30.03;100755.49;114663;1196;103226;-83
2021/04/25 08:22:49;;;;;;;2.55;2.18;;;;;;;9.40;28.77;100753.45;114492;1196;103112;-82
2021/04/25 08:25:18;;;;;;;3.60;2.10;;;;;;;9.51;28.10;100755.94;114772;1196;103207;-82
2021/04/25 08:27:47;;;;;;;2.35;1.83;;;;;;;9.64;26.82;100754.83;114321;1196;103194;-81
2021/04/25 08:30:14;;;;;;;6.07;2.40;;;;;;;9.75;27.16;100744.00;115452;1196;102238;-83
2021/04/25 08:32:41;;;;;;;1.88;1.78;;;;;;;10.00;27.90;100740.91;114691;1196;103124;-82
2021/04/25 08:35:10;;;;;;;2.20;1.50;;;;;;;10.24;26.97;100739.56;114531;1197;103571;-83
2021/04/25 08:37:37;;;;;;;2.10;1.90;;;;;;;10.35;26.67;100737.59;114485;1196;103501;-82
2021/04/25 08:40:06;;;;;;;1.85;1.70;;;;;;;10.43;26.20;100736.58;114218;1196;103807;-80
2021/04/25 08:42:33;;;;;;;1.57;1.47;;;;;;;10.25;25.40;100749.31;114113;1197;103249;-80
2021/04/25 08:45:00;;;;;;;1.88;1.73;;;;;;;9.98;25.37;100746.27;114112;1196;103367;-84
2021/04/25 08:47:28;;;;;;;1.90;1.80;;;;;;;9.98;25.00;100737.39;114631;1196;103153;-83
2021/04/25 08:50:10;;;;;;;2.95;1.80;;;;;;;10.20;24.96;100732.55;115411;1196;103119;-82
2021/04/25 08:52:39;;;;;;;1.73;1.63;;;;;;;10.75;25.24;100722.56;114569;1196;103163;-79
2021/04/25 08:55:08;;;;;;;1.73;1.63;;;;;;;11.17;25.23;100727.84;116086;1196;103105;-82
2021/04/25 08:57:51;;;;;;;3.50;2.00;;;;;;;11.14;24.62;100725.26;113873;1200;103508;-83
2021/04/25 09:00:27;;;;;;;2.50;2.30;;;;;;;11.23;24.05;100726.81;114058;1199;103776;-81
2021/04/25 09:03:13;;;;;;;1.60;1.50;;;;;;;11.49;24.27;100720.85;115039;1200;102117;-84
2021/04/25 09:05:44;;;;;;;2.40;1.50;;;;;;;11.83;23.43;100705.77;114103;1200;103421;-83
2021/04/25 09:08:16;;;;;;;2.50;2.20;;;;;;;12.14;22.65;100713.86;115707;1199;103281;-84
2021/04/25 09:10:46;;;;;;;4.50;3.30;;;;;;;12.27;22.32;100702.82;113886;1200;103303;-86
2021/04/25 09:13:21;;;;;;;5.13;4.63;;;;;;;12.29;22.36;100708.98;114104;1199;103261;-84
2021/04/25 09:15:52;;;;;;;2.20;1.80;;;;;;;12.53;23.82;100699.41;113756;1200;103213;-83
2021/04/25 09:18:34;;;;;;;1.30;1.15;;;;;;;13.12;23.37;100700.28;113831;1199;103316;-85
2021/04/25 09:21:07;;;;;;;1.75;1.45;;;;;;;15.24;21.01;100693.52;114216;1200;103341;-79
2021/04/25 09:23:35;;;;;;;1.70;1.60;;;;;;;17.11;19.17;100698.67;114335;1200;103197;-81
2021/04/25 09:26:05;;;;;;;2.80;1.40;;;;;;;16.93;18.68;100692.38;115088;1200;103201;-83
2021/04/25 09:28:37;;;;;;;1.20;1.10;;;;;;;16.07;18.88;100682.89;115225;1200;102183;-84
2021/04/25 09:31:09;;;;;;;1.23;1.07;;;;;;;15.18;18.46;100683.92;114205;1200;103885;-83
2021/04/25 09:33:56;;;;;;;1.80;1.30;;;;;;;14.69;19.53;100685.89;116105;1200;101795;-84
2021/04/25 09:36:28;;;;;;;2.55;1.00;;;;;;;14.20;19.77;100691.25;115064;1196;103203;-85
2021/04/25 09:39:14;;;;;;;3.15;1.68;;;;;;;13.84;20.25;100694.33;114432;1196;103709;-84
2021/04/25 09:41:51;;;;;;;2.03;1.33;;;;;;;13.46;20.30;100708.11;114675;1196;103121;-85
2021/04/25 09:44:37;;;;;;;3.40;1.40;;;;;;;13.13;20.97;100702.00;114536;1197;103182;-84
2021/04/25 09:47:14;;;;;;;1.30;1.20;;;;;;;12.78;21.09;100688.84;114490;1196;103644;-86
2021/04/25 09:49:49;;;;;;;2.80;1.80;;;;;;;12.54;21.36;100693.11;115273;1196;103242;-87
2021/04/25 09:52:37;;;;;;;2.20;2.10;;;;;;;12.35;22.23;100695.46;114465;1196;103089;-85
2021/04/25 09:55:28;;;;;;;1.20;1.10;;;;;;;12.18;21.95;100695.94;116206;1196;101143;-87
2021/04/25 09:58:08;;;;;;;1.63;1.53;;;;;;;11.98;22.88;100684.05;114240;1195;103204;-84
2021/04/25 10:00:51;;;;;;;1.90;1.30;;;;;;;11.57;22.61;100699.33;114491;1196;103286;-82
2021/04/25 10:03:37;;;;;;;2.33;1.50;;;;;;;11.34;23.11;100699.89;114726;1196;103672;-83
2021/04/25 10:06:29;;;;;;;1.40;1.30;;;;;;;11.11;22.49;100706.65;114385;1196;103050;-83
2021/04/25 10:09:15;;;;;;;1.80;1.70;;;;;;;11.13;23.24;100702.17;114717;1196;103217;-81
2021/04/25 10:11:55;;;;;;;2.10;1.53;;;;;;;11.28;22.56;100697.39;114859;1196;103112;-83
2021/04/25 10:14:30;;;;;;;1.60;1.10;;;;;;;12.83;21.70;100688.69;114642;1196;103259;-85
2021/04/25 10:17:01;;;;;;;2.48;1.90;;;;;;;14.82;20.30;100683.58;115053;1196;103182;-84
2021/04/25 10:19:31;;;;;;;1.50;1.40;;;;;;;16.70;18.01;100672.80;114332;1196;103160;-81
2021/04/25 10:21:59;;;;;;;2.40;1.37;;;;;;;17.08;18.39;100682.69;114012;1196;103303;-84
2021/04/25 10:24:26;;;;;;;2.28;1.15;;;;;;;16.70;17.65;100671.91;114589;1196;103044;-82
2021/04/25 10:27:03;;;;;;;2.10;1.40;;;;;;;16.34;18.16;100672.69;114651;1196;103095;-82
2021/04/25 10:29:51;;;;;;;1.25;0.80;;;;;;;16.10;18.11;100677.38;114806;1196;103194;-82
2021/04/25 10:32:19;;;;;;;1.23;0.90;;;;;;;15.67;18.53;100686.37;115975;1196;103188;-83
2021/04/25 10:34:51;;;;;;;1.33;1.20;;;;;;;15.60;18.55;100678.64;114518;1196;103223;-82
2021/04/25 10:37:19;;;;;;;1.33;1.10;;;;;;;15.17;19.64;100682.17;114283;1198;103120;-84
2021/04/25 10:39:55;;;;;;;1.33;1.10;;;;;;;14.58;19.81;100682.70;114396;1197;103265;-82
2021/04/25 10:42:29;;;;;;;1.50;1.10;;;;;;;14.30;19.80;100683.74;114545;1196;103093;-84
2021/04/25 10:45:02;;;;;;;3.70;1.60;;;;;;;13.80;20.72;100680.17;114486;1196;103096;-83
2021/04/25 10:47:35;;;;;;;2.67;1.70;;;;;;;13.52;20.87;100691.83;114538;1196;103070;-83
2021/04/25 10:50:15;;;;;;;2.40;1.60;;;;;;;13.20;21.62;100692.88;114633;1196;103191;-84
2021/04/25 10:52:45;;;;;;;1.67;1.57;;;;;;;12.79;22.34;100695.06;114480;1196;103191;-82
2021/04/25 10:55:29;;;;;;;1.53;1.40;;;;;;;12.52;22.93;100701.18;114664;1196;103210;-84
2021/04/25 10:58:01;;;;;;;2.83;1.97;;;;;;;12.25;22.50;100700.20;114734;1196;103255;-89
2021/04/25 11:00:31;;;;;;;2.90;1.93;;;;;;;11.74;24.41;100722.88;114739;1196;103092;-89
2021/04/25 11:03:09;;;;;;;2.17;1.77;;;;;;;11.21;27.64;100732.19;114445;1196;103818;-83
2021/04/25 11:05:39;;;;;;;9.80;6.18;;;;;;;10.84;29.09;100733.02;116616;1196;101121;-83
2021/04/25 11:08:12;;;;;;;2.40;2.07;;;;;;;10.54;30.03;100727.45;115713;1196;103124;-87
2021/04/25 11:10:51;;;;;;;3.43;2.37;;;;;;;10.25;30.59;100728.02;114386;1196;103095;-83
2021/04/25 11:13:44;;;;;;;2.07;1.70;;;;;;;9.93;30.81;100741.91;114399;1196;103088;-86
2021/04/25 11:16:17;;;;;;;2.35;1.70;;;;;;;9.79;30.92;100739.52;114511;1196;103207;-82
2021/04/25 11:18:46;;;;;;;2.00;1.70;;;;;;;9.90;31.20;100734.86;116346;1196;101633;-85
2021/04/25 11:21:32;;;;;;;4.03;2.08;;;;;;;10.00;30.99;100744.44;115353;1197;103316;-84
2021/04/25 11:24:03;;;;;;;2.55;2.35;;;;;;;10.16;30.84;100744.16;114635;1196;103195;-79
2021/04/25 11:26:40;;;;;;;2.18;2.00;;;;;;;10.30;30.95;100738.56;114445;1196;103370;-84
2021/04/25 11:29:11;;;;;;;2.45;1.83;;;;;;;10.43;30.05;100737.44;114515;1196;103278;-86
2021/04/25 11:31:55;;;;;;;3.27;2.03;;;;;;;10.48;29.47;100735.56;114425;1196;103190;-84